Time;durP1;ratioP1;P1;durP2;ratioP2;P2;SDS_P1;SDS_P2;PMS_P1;PMS_P2;Temp;Humidity;BMP_temperature;BMP_pressure;BME280_temperature;BME280_humidity;BME280_pressure;Samples;Min_cycle;Max_cycle;Signal;HPM_P1;HPM_P2
2022/05/13 00:00:46;;;;;;;3.63;1.30;;;;;;;17.11;38.89;99951.88;5011150;28;20053;-62
2022/05/13 00:03:12;;;;;;;4.10;1.23;;;;;;;17.06;39.19;99956.72;5011038;28;20084;-62
2022/05/13 00:05:39;;;;;;;3.97;1.05;;;;;;;17.04;38.91;99954.19;5010931;28;20108;-61
2022/05/13 00:08:06;;;;;;;2.75;1.30;;;;;;;17.01;39.16;99954.41;4993579;28;20131;-62
2022/05/13 00:10:33;;;;;;;1.80;1.02;;;;;;;16.98;38.90;99949.34;5010749;28;20058;-62
2022/05/13 00:13:00;;;;;;;4.28;1.67;;;;;;;16.94;39.03;99943.41;4977105;28;20486;-62
2022/05/13 00:15:29;;;;;;;3.95;1.40;;;;;;;16.89;38.96;99942.97;5010940;28;20469;-62
2022/05/13 00:17:56;;;;;;;2.72;1.10;;;;;;;16.84;39.05;99945.16;5010527;28;20056;-62
2022/05/13 00:20:24;;;;;;;3.10;1.00;;;;;;;16.79;39.19;99940.19;5010800;28;20053;-62
2022/05/13 00:22:53;;;;;;;3.75;1.40;;;;;;;16.73;39.21;99946.00;4993217;28;20053;-61
2022/05/13 00:25:26;;;;;;;3.90;1.35;;;;;;;16.68;39.42;99945.53;5010705;28;20050;-62
2022/05/13 00:27:56;;;;;;;;;;;;;;;16.62;38.50;99941.56;5011463;28;20072;-63
2022/05/13 00:30:24;;;;;;;4.00;1.38;;;;;;;16.60;39.11;99943.47;5010572;28;19925;-62
2022/05/13 00:32:51;;;;;;;3.70;1.45;;;;;;;16.54;39.33;99938.66;5010578;28;20402;-61
2022/05/13 00:35:20;;;;;;;5.68;1.35;;;;;;;16.47;39.60;99938.31;4993142;28;20057;-61
2022/05/13 00:37:47;;;;;;;3.78;1.33;;;;;;;16.44;39.54;99943.03;4993069;28;20140;-62
2022/05/13 00:40:15;;;;;;;3.03;1.40;;;;;;;16.39;39.78;99941.56;5010258;28;20054;-65
2022/05/13 00:42:42;;;;;;;6.75;1.50;;;;;;;16.34;39.63;99926.97;4993081;28;20061;-62
2022/05/13 00:45:13;;;;;;;8.55;1.75;;;;;;;16.30;39.82;99929.00;4993422;28;20057;-61
2022/05/13 00:47:41;;;;;;;4.85;1.60;;;;;;;16.25;39.67;99920.53;4997022;28;20058;-63
2022/05/13 00:50:09;;;;;;;4.22;1.50;;;;;;;16.21;39.88;99925.25;4996505;28;20085;-62
2022/05/13 00:52:43;;;;;;;4.28;1.20;;;;;;;16.18;40.13;99922.84;5013941;28;20417;-61
2022/05/13 00:55:12;;;;;;;;;;;;;;;16.16;39.29;99938.06;5015051;28;20050;-64
2022/05/13 00:57:39;;;;;;;4.93;1.50;;;;;;;16.17;39.67;99936.22;5014270;28;19928;-61
2022/05/13 01:00:11;;;;;;;6.25;1.60;;;;;;;16.08;40.14;99930.69;4996566;28;20054;-63
2022/05/13 01:02:43;;;;;;;4.83;1.73;;;;;;;16.03;39.99;99927.53;5014255;28;20053;-64
2022/05/13 01:05:12;;;;;;;8.38;1.85;;;;;;;15.97;40.43;99925.34;5013788;28;20537;-62
2022/05/13 01:07:40;;;;;;;6.38;1.70;;;;;;;15.92;40.47;99923.00;5014324;28;20104;-62
2022/05/13 01:10:13;;;;;;;3.28;1.67;;;;;;;15.87;40.82;99912.75;5013525;28;20453;-63
2022/05/13 01:12:42;;;;;;;;;;;;;;;15.84;39.70;99912.13;4996991;28;20046;-64
2022/05/13 01:15:19;;;;;;;3.10;1.42;;;;;;;15.82;41.08;99914.06;5013858;28;19921;-63
2022/05/13 01:20:48;;;;;;;5.07;2.03;;;;;;;15.72;40.96;99914.78;5013738;28;20144;-63
2022/05/13 01:23:19;;;;;;;5.40;2.00;;;;;;;15.69;40.88;99917.66;5013605;28;20145;-62
2022/05/13 01:25:52;;;;;;;6.43;1.50;;;;;;;15.65;41.29;99913.56;5013457;28;20532;-61
2022/05/13 01:28:25;;;;;;;2.10;1.60;;;;;;;15.61;41.19;99910.28;4996308;28;20079;-65
2022/05/13 01:30:55;;;;;;;9.57;1.75;;;;;;;15.58;40.89;99907.88;5013468;28;20494;-63
2022/05/13 01:33:23;;;;;;;4.82;1.80;;;;;;;15.55;40.82;99908.09;4995931;28;20502;-62
2022/05/13 01:35:53;;;;;;;5.72;2.00;;;;;;;15.51;41.08;99906.63;4995650;28;20054;-62
2022/05/13 01:38:22;;;;;;;5.90;1.52;;;;;;;15.49;41.25;99914.72;4995722;28;20053;-62
2022/05/13 01:40:49;;;;;;;3.03;1.60;;;;;;;15.47;40.88;99907.81;4995707;28;20049;-64
2022/05/13 01:43:16;;;;;;;4.20;1.67;;;;;;;15.43;41.07;99909.88;5012968;28;20112;-62
2022/05/13 01:45:43;;;;;;;7.05;1.20;;;;;;;15.40;41.02;99906.63;5013304;28;20058;-61
2022/05/13 01:48:10;;;;;;;3.78;1.42;;;;;;;15.38;41.14;99901.41;4995655;28;20049;-63
2022/05/13 01:50:38;;;;;;;4.07;1.15;;;;;;;15.36;41.22;99911.28;4995413;28;20057;-61
2022/05/13 01:53:05;;;;;;;2.22;1.30;;;;;;;15.34;41.13;99905.25;5012984;28;20050;-61
2022/05/13 01:55:32;;;;;;;2.28;1.50;;;;;;;15.31;41.12;99910.78;5013183;28;20057;-62
2022/05/13 01:57:59;;;;;;;2.42;1.30;;;;;;;15.29;41.30;99908.25;5012890;28;20396;-62
2022/05/13 02:00:27;;;;;;;3.90;1.55;;;;;;;15.27;41.24;99909.31;5012643;28;20096;-62
2022/05/13 02:05:40;;;;;;;3.97;1.40;;;;;;;15.21;41.38;99906.16;5013226;28;20111;-64
2022/05/13 02:08:07;;;;;;;4.75;1.67;;;;;;;15.18;41.24;99911.69;5012758;28;20053;-61
2022/05/13 02:10:34;;;;;;;4.75;1.33;;;;;;;15.15;41.32;99903.13;4995375;28;20058;-61
2022/05/13 02:13:01;;;;;;;4.05;1.48;;;;;;;15.09;41.45;99902.63;5012458;28;20052;-61
2022/05/13 02:15:28;;;;;;;6.70;1.50;;;;;;;15.07;41.69;99909.00;5013006;28;20050;-62
2022/05/13 02:17:54;;;;;;;3.40;1.73;;;;;;;15.02;41.61;99897.91;4995080;28;20050;-62
2022/05/13 02:20:21;;;;;;;4.40;1.67;;;;;;;14.99;41.73;99898.94;5012560;28;20127;-61
2022/05/13 02:22:47;;;;;;;4.28;1.50;;;;;;;14.96;41.70;99896.53;5012386;28;20080;-61
2022/05/13 02:25:14;;;;;;;2.88;1.50;;;;;;;14.92;41.79;99895.91;5012603;28;20046;-63
2022/05/13 02:27:40;;;;;;;5.28;1.65;;;;;;;14.89;41.82;99896.16;5012613;28;20119;-61
2022/05/13 02:30:08;;;;;;;8.23;1.58;;;;;;;14.86;41.86;99899.00;5012114;28;20536;-63
2022/05/13 02:32:35;;;;;;;4.30;1.65;;;;;;;14.82;41.99;99902.84;5012153;28;20129;-61
2022/05/13 02:35:01;;;;;;;3.58;1.25;;;;;;;14.79;42.08;99898.63;5012531;28;20099;-62
2022/05/13 02:37:28;;;;;;;6.22;1.73;;;;;;;14.76;42.09;99901.47;5012281;28;20050;-64
2022/05/13 02:39:54;;;;;;;6.72;1.45;;;;;;;14.73;42.19;99893.75;5012033;28;20108;-61
2022/05/13 02:42:21;;;;;;;4.75;1.50;;;;;;;14.69;42.23;99895.75;5011886;28;20050;-62
2022/05/13 02:44:48;;;;;;;4.03;1.75;;;;;;;14.67;42.12;99899.47;5011897;28;20081;-61
2022/05/13 02:47:14;;;;;;;3.85;1.40;;;;;;;14.63;42.21;99896.19;5011928;28;20080;-64
2022/05/13 02:49:41;;;;;;;3.72;1.45;;;;;;;14.60;42.56;99896.41;5011965;28;20049;-61
2022/05/13 02:52:11;;;;;;;6.22;1.45;;;;;;;14.56;42.70;99897.59;5011827;28;20108;-62
2022/05/13 02:54:38;;;;;;;3.85;1.55;;;;;;;14.53;42.56;99892.50;5012062;28;20053;-61
2022/05/13 02:57:05;;;;;;;3.67;1.40;;;;;;;14.50;42.50;99890.09;5012004;28;20124;-64
2022/05/13 02:59:31;;;;;;;7.20;1.92;;;;;;;14.46;42.55;99889.44;4993889;28;20058;-61
2022/05/13 03:01:58;;;;;;;3.35;1.60;;;;;;;14.43;42.60;99890.50;5011369;28;20104;-62
2022/05/13 03:04:25;;;;;;;2.85;1.35;;;;;;;14.40;42.90;99885.47;5011706;28;20061;-62
2022/05/13 03:06:52;;;;;;;6.65;1.50;;;;;;;14.37;42.92;99885.66;5011581;28;20041;-61
2022/05/13 03:09:18;;;;;;;5.15;1.67;;;;;;;14.36;43.02;99878.69;5011060;28;20411;-61
2022/05/13 03:11:45;;;;;;;3.13;1.65;;;;;;;14.32;43.12;99871.91;5011349;28;20065;-62
2022/05/13 03:14:11;;;;;;;6.50;1.75;;;;;;;14.30;43.24;99879.09;5011198;28;20494;-61
2022/05/13 03:16:38;;;;;;;6.28;1.80;;;;;;;14.26;43.34;99875.84;5011345;28;20057;-62
2022/05/13 03:19:04;;;;;;;3.78;1.25;;;;;;;14.24;43.22;99877.72;5011252;28;20136;-62
2022/05/13 03:21:31;;;;;;;7.10;1.40;;;;;;;14.20;43.42;99874.47;5011521;28;20057;-63
2022/05/13 03:23:58;;;;;;;4.30;1.67;;;;;;;14.16;43.44;99867.69;5011414;28;20100;-62
2022/05/13 03:26:24;;;;;;;3.47;1.80;;;;;;;14.12;43.67;99876.81;5011179;28;20046;-62
2022/05/13 03:28:51;;;;;;;4.90;2.10;;;;;;;14.07;43.70;99871.00;4993809;28;20565;-63
2022/05/13 03:31:18;;;;;;;8.10;1.88;;;;;;;14.03;43.84;99874.81;5011107;28;20450;-61
2022/05/13 03:33:44;;;;;;;5.32;2.22;;;;;;;13.98;43.88;99869.00;5011395;28;20046;-61
2022/05/13 03:36:12;;;;;;;6.20;2.00;;;;;;;13.93;43.97;99872.81;5011069;28;20058;-62
2022/05/13 03:38:40;;;;;;;4.18;1.90;;;;;;;13.88;44.13;99877.56;5011105;28;20048;-61
2022/05/13 03:41:08;;;;;;;3.17;1.58;;;;;;;13.84;44.29;99876.09;5010907;28;20056;-62
2022/05/13 03:43:35;;;;;;;2.80;1.73;;;;;;;13.80;44.55;99883.38;5010977;28;20494;-61
2022/05/13 03:46:01;;;;;;;7.55;2.50;;;;;;;13.78;44.32;99879.13;5010960;28;20046;-64
2022/05/13 03:48:28;;;;;;;7.10;2.10;;;;;;;13.76;44.42;99865.19;5010864;28;20046;-62
2022/05/13 03:50:55;;;;;;;3.55;1.67;;;;;;;13.74;44.68;99861.78;5011072;28;20061;-62
2022/05/13 03:53:21;;;;;;;5.57;1.92;;;;;;;13.74;44.79;99853.84;5011135;28;20057;-60
2022/05/13 03:55:48;;;;;;;5.07;1.77;;;;;;;13.72;44.87;99858.41;5010835;28;20049;-64
2022/05/13 03:58:14;;;;;;;10.90;1.90;;;;;;;13.72;44.82;99884.88;5010913;28;20477;-61
2022/05/13 04:00:42;;;;;;;4.45;1.80;;;;;;;13.72;45.03;99872.47;5010794;28;20077;-61
2022/05/13 04:03:09;;;;;;;3.40;1.63;;;;;;;13.73;44.94;99868.03;5010712;28;20111;-62
2022/05/13 04:11:07;;;;;;;5.43;1.80;;;;;;;13.72;44.90;99874.28;5010552;28;20054;-65
2022/05/13 04:16:18;;;;;;;3.83;1.48;;;;;;;13.72;44.98;99861.88;5010548;28;20565;-63
2022/05/13 04:18:49;;;;;;;3.60;1.60;;;;;;;13.70;45.29;99855.88;5010469;28;20062;-62
2022/05/13 04:21:30;;;;;;;3.78;1.60;;;;;;;13.68;45.59;99858.59;5014523;28;20106;-62
2022/05/13 04:23:59;;;;;;;5.68;1.50;;;;;;;13.67;45.56;99854.28;5014909;28;20058;-64
2022/05/13 04:26:26;;;;;;;5.82;1.60;;;;;;;13.69;45.43;99854.19;4997148;28;20120;-62
2022/05/13 04:28:54;;;;;;;7.90;2.03;;;;;;;13.68;45.70;99852.47;5014335;28;20120;-63
2022/05/13 04:31:28;;;;;;;5.80;1.90;;;;;;;13.67;46.42;99867.50;5013937;28;20053;-62
2022/05/13 04:33:55;;;;;;;5.65;1.90;;;;;;;13.73;45.84;99849.50;4997034;28;20058;-63
2022/05/13 04:36:23;;;;;;;7.10;2.03;;;;;;;13.74;45.69;99857.34;5014361;28;20062;-62
2022/05/13 04:38:50;;;;;;;4.97;1.70;;;;;;;13.76;45.76;99857.25;5014278;28;20058;-62
2022/05/13 04:44:04;;;;;;;6.78;1.65;;;;;;;13.84;45.77;99869.94;5014387;28;20066;-63
2022/05/13 04:46:31;;;;;;;6.35;1.73;;;;;;;13.86;45.87;99879.47;5014293;28;20118;-64
2022/05/13 04:48:59;;;;;;;3.80;1.90;;;;;;;13.89;45.96;99881.03;4996933;28;20057;-63
2022/05/13 04:51:26;;;;;;;3.78;1.70;;;;;;;13.91;45.91;99887.91;5013746;28;20494;-62
2022/05/13 04:53:55;;;;;;;7.40;2.03;;;;;;;13.93;46.26;99888.69;5013653;28;20061;-63
2022/05/13 04:56:23;;;;;;;4.25;1.55;;;;;;;13.98;46.31;99898.09;5014442;28;20058;-64
2022/05/13 04:58:50;;;;;;;7.10;1.95;;;;;;;14.01;46.23;99903.16;4996296;28;20054;-63
2022/05/13 05:01:18;;;;;;;3.85;1.65;;;;;;;14.04;46.28;99897.66;5013577;28;20686;-62
2022/05/13 05:03:45;;;;;;;6.55;2.00;;;;;;;14.07;46.31;99903.59;4996316;28;20064;-63
2022/05/13 05:06:13;;;;;;;4.80;1.73;;;;;;;14.12;46.30;99908.56;5013591;28;20449;-64
2022/05/13 05:08:41;;;;;;;7.90;1.85;;;;;;;14.17;46.39;99917.03;4996277;28;20050;-65
2022/05/13 05:11:08;;;;;;;7.75;1.80;;;;;;;14.23;46.37;99914.91;5013338;28;20050;-64
2022/05/13 05:13:38;;;;;;;4.18;1.60;;;;;;;14.26;46.91;99912.03;5013876;28;20097;-63
2022/05/13 05:16:06;;;;;;;4.78;2.20;;;;;;;14.30;46.49;99906.44;4996235;28;20050;-62
2022/05/13 05:18:34;;;;;;;3.72;1.85;;;;;;;14.35;46.66;99911.41;5013822;28;20050;-64
2022/05/13 05:21:01;;;;;;;5.82;1.85;;;;;;;14.39;46.38;99915.53;5011465;28;20042;-63
2022/05/13 05:23:31;;;;;;;7.47;2.00;;;;;;;14.42;46.81;99925.91;5012947;28;20058;-62
2022/05/13 05:25:58;;;;;;;8.55;1.90;;;;;;;14.46;46.39;99922.09;5013170;28;20042;-62
2022/05/13 05:28:27;;;;;;;6.43;2.10;;;;;;;14.49;46.82;99925.47;5013474;28;20092;-64
2022/05/13 05:30:55;;;;;;;7.97;2.20;;;;;;;14.51;46.70;99924.41;5012807;28;20096;-64
2022/05/13 05:33:23;;;;;;;10.65;2.72;;;;;;;14.53;46.93;99927.78;5013296;28;20057;-63
2022/05/13 05:35:49;;;;;;;6.07;1.92;;;;;;;14.55;46.85;99923.22;4995291;28;20042;-63
2022/05/13 05:38:16;;;;;;;6.18;2.38;;;;;;;14.57;46.87;99936.34;5013081;28;20433;-63
2022/05/13 05:40:43;;;;;;;8.15;2.15;;;;;;;14.57;47.02;99923.97;5013436;28;20046;-64
2022/05/13 05:43:12;;;;;;;6.45;2.40;;;;;;;14.59;47.37;99927.34;5013249;28;20529;-65
2022/05/13 05:45:40;;;;;;;7.03;2.25;;;;;;;14.61;47.34;99927.25;4995982;28;20046;-63
2022/05/13 05:48:13;;;;;;;12.27;2.30;;;;;;;14.65;47.78;99938.47;5013280;28;20053;-63
2022/05/13 05:50:40;;;;;;;7.93;2.42;;;;;;;14.69;47.56;99945.25;5013059;28;20044;-62
2022/05/13 05:53:07;;;;;;;6.25;2.60;;;;;;;14.72;47.46;99945.88;5013310;28;20050;-62
2022/05/13 05:58:19;;;;;;;7.30;2.35;;;;;;;14.78;47.64;99952.56;5012941;28;20529;-62
2022/05/13 06:00:49;;;;;;;6.47;2.38;;;;;;;14.80;47.69;99961.25;4995302;28;20520;-62
2022/05/13 06:03:16;;;;;;;8.73;2.47;;;;;;;14.83;47.75;99966.34;4995371;28;20137;-63
2022/05/13 06:05:46;;;;;;;5.85;2.45;;;;;;;14.86;47.94;99959.97;5012778;28;20493;-63
2022/05/13 06:08:13;;;;;;;7.72;2.50;;;;;;;14.88;47.61;99963.34;5012854;28;20057;-63
2022/05/13 06:10:39;;;;;;;6.90;2.45;;;;;;;14.90;47.97;99956.13;5012788;28;20038;-62
2022/05/13 06:13:07;;;;;;;11.13;3.00;;;;;;;14.91;47.74;99959.66;5012675;28;20398;-62
2022/05/13 06:15:34;;;;;;;6.85;2.55;;;;;;;14.93;48.00;99963.88;5012569;28;20049;-62
2022/05/13 06:18:01;;;;;;;10.20;3.13;;;;;;;14.95;47.96;99971.72;5012894;28;20054;-64
2022/05/13 06:20:30;;;;;;;9.30;2.83;;;;;;;14.95;48.28;99967.25;5012590;28;20046;-62
2022/05/13 06:22:57;;;;;;;11.82;2.75;;;;;;;14.98;48.26;99963.53;5012902;28;20053;-62
2022/05/13 06:25:25;;;;;;;9.77;3.00;;;;;;;15.02;48.37;99969.47;5012603;28;20054;-62
2022/05/13 06:27:54;;;;;;;13.27;3.22;;;;;;;15.05;48.48;99971.88;4995132;28;20494;-63
2022/05/13 06:30:26;;;;;;;9.20;3.40;;;;;;;15.08;49.04;99977.81;4995012;28;20177;-61
2022/05/13 06:32:54;;;;;;;7.55;2.97;;;;;;;15.14;48.39;99975.69;4994977;28;20045;-62
2022/05/13 06:35:23;;;;;;;11.45;2.97;;;;;;;15.19;48.79;99981.50;4994975;28;20049;-62
2022/05/13 06:37:51;;;;;;;11.88;3.17;;;;;;;15.24;48.57;99988.16;4994736;28;20108;-65
2022/05/13 06:40:18;;;;;;;12.85;3.25;;;;;;;15.30;48.55;99986.00;4994291;28;20054;-64
2022/05/13 06:42:45;;;;;;;9.10;3.22;;;;;;;15.37;48.51;99995.22;4993166;28;20050;-63
2022/05/13 06:45:12;;;;;;;10.32;3.10;;;;;;;15.43;48.99;99989.44;5010762;28;20054;-62
2022/05/13 06:47:38;;;;;;;8.43;3.75;;;;;;;15.51;48.88;99994.19;5012126;28;20042;-62
2022/05/13 06:50:07;;;;;;;14.55;3.85;;;;;;;15.59;49.12;99985.66;5011992;28;20049;-62
2022/05/13 06:52:35;;;;;;;9.73;3.25;;;;;;;15.68;48.97;99990.28;4994665;28;20046;-64
2022/05/13 06:55:08;;;;;;;10.98;4.00;;;;;;;15.78;48.82;99987.78;5012454;28;20104;-63
2022/05/13 06:57:34;;;;;;;11.35;3.72;;;;;;;15.88;48.93;99993.22;4994661;28;20442;-62
2022/05/13 07:00:02;;;;;;;13.38;3.58;;;;;;;15.96;48.91;99990.88;5012105;28;20053;-62
2022/05/13 07:02:29;;;;;;;12.88;3.78;;;;;;;16.04;48.65;99984.13;5011651;28;20042;-62
2022/05/13 07:04:56;;;;;;;12.35;3.58;;;;;;;16.11;48.26;99982.72;4994444;28;20046;-63
2022/05/13 07:07:22;;;;;;;14.75;3.75;;;;;;;16.16;48.18;99988.50;5011651;28;20137;-62
2022/05/13 07:09:49;;;;;;;9.57;3.20;;;;;;;16.18;48.28;99978.59;5011817;28;20046;-62
2022/05/13 07:12:16;;;;;;;13.48;3.45;;;;;;;16.20;48.01;99979.34;5011763;28;20307;-62
2022/05/13 07:14:42;;;;;;;8.55;3.10;;;;;;;16.21;47.98;99985.47;5011749;28;20100;-62
2022/05/13 07:17:09;;;;;;;8.95;3.33;;;;;;;16.23;48.15;99981.75;5011585;28;20104;-62
2022/05/13 07:19:35;;;;;;;10.27;3.10;;;;;;;16.24;48.23;99991.44;5011630;28;20100;-62
2022/05/13 07:22:02;;;;;;;6.97;3.13;;;;;;;16.27;48.01;99990.34;5011275;28;20139;-62
2022/05/13 07:24:29;;;;;;;8.18;3.60;;;;;;;16.27;47.91;100004.44;4994258;28;20068;-63
2022/05/13 07:26:55;;;;;;;8.20;3.00;;;;;;;16.27;47.87;99990.34;5011704;28;20108;-62
2022/05/13 07:29:22;;;;;;;9.77;3.50;;;;;;;16.28;47.77;100005.31;5011515;28;20042;-63
2022/05/13 07:31:49;;;;;;;7.97;3.47;;;;;;;16.30;47.95;100002.53;5011184;28;20050;-64
2022/05/13 07:34:15;;;;;;;10.88;3.60;;;;;;;16.32;47.85;100005.91;4993860;28;20050;-63
2022/05/13 07:36:42;;;;;;;12.05;3.95;;;;;;;16.33;48.43;100004.97;5011236;28;20048;-62
2022/05/13 07:41:53;;;;;;;13.73;4.07;;;;;;;16.40;48.35;100022.09;5011273;28;20103;-62
2022/05/13 07:44:20;;;;;;;9.85;3.58;;;;;;;16.47;48.26;100017.16;5011112;28;20046;-62
2022/05/13 07:46:46;;;;;;;11.00;3.40;;;;;;;16.52;48.41;100017.66;5011002;28;20053;-63
2022/05/13 07:49:13;;;;;;;14.05;3.42;;;;;;;16.61;48.36;100016.09;5011018;28;20448;-64
2022/05/13 07:51:40;;;;;;;8.50;3.78;;;;;;;16.70;48.52;100014.53;5011141;28;20475;-62
2022/05/13 07:54:06;;;;;;;8.57;3.47;;;;;;;16.80;48.35;100013.69;5011149;28;20058;-63
2022/05/13 07:56:33;;;;;;;9.60;3.25;;;;;;;16.93;48.63;100024.16;5011038;28;20360;-62
2022/05/13 07:59:02;;;;;;;8.00;3.15;;;;;;;17.07;48.53;100016.94;5010880;28;20096;-65
2022/05/13 08:01:29;;;;;;;8.55;3.53;;;;;;;17.24;48.29;100023.56;5010840;28;20108;-63
2022/05/13 08:03:56;;;;;;;9.32;3.50;;;;;;;17.39;47.93;100010.81;5010784;28;20045;-62
2022/05/13 08:06:23;;;;;;;10.43;3.53;;;;;;;17.53;48.21;100012.31;5010958;28;20463;-62
2022/05/13 08:08:56;;;;;;;15.82;3.60;;;;;;;17.67;47.27;100019.19;5011378;28;20381;-62
2022/05/13 08:11:24;;;;;;;12.88;3.83;;;;;;;17.81;47.43;100018.03;5010764;28;20092;-62
2022/05/13 08:13:52;;;;;;;5.68;2.92;;;;;;;17.94;47.19;100022.34;4993392;28;20091;-62
2022/05/13 08:16:21;;;;;;;8.65;3.35;;;;;;;18.06;47.17;100028.44;5010877;28;20074;-63
2022/05/13 08:18:49;;;;;;;6.30;3.00;;;;;;;18.19;46.69;100028.25;4993265;28;20144;-64
2022/05/13 08:21:15;;;;;;;15.07;3.40;;;;;;;18.27;46.83;100015.13;5010918;28;20065;-63
2022/05/13 08:23:42;;;;;;;7.53;3.42;;;;;;;18.35;46.37;100031.31;5010881;28;20054;-63
2022/05/13 08:26:09;;;;;;;7.72;2.92;;;;;;;18.41;46.08;100031.75;5011092;28;20111;-62
2022/05/13 08:28:35;;;;;;;8.57;3.10;;;;;;;18.44;45.57;100034.16;5010806;28;20100;-63
2022/05/13 08:31:02;;;;;;;7.35;2.80;;;;;;;18.44;45.69;100031.50;5010380;28;20128;-62
2022/05/13 08:33:29;;;;;;;11.63;2.80;;;;;;;18.42;45.56;100031.63;5010757;28;20050;-63
2022/05/13 08:35:58;;;;;;;9.25;3.15;;;;;;;18.42;45.67;100036.09;4993073;28;20061;-63
2022/05/13 08:38:28;;;;;;;9.63;2.97;;;;;;;18.40;45.03;100030.94;5011026;28;20039;-63
2022/05/13 08:41:07;;;;;;;9.43;3.45;;;;;;;18.36;45.33;100040.16;4992927;28;20053;-62
2022/05/13 08:43:45;;;;;;;7.60;2.28;;;;;;;18.41;45.58;100040.59;5010585;28;20774;-62
2022/05/13 08:46:30;;;;;;;6.85;2.22;;;;;;;18.40;45.19;100043.41;5010530;28;20108;-64
2022/05/13 08:49:07;;;;;;;5.40;2.58;;;;;;;18.46;45.57;100035.72;5010718;28;20084;-63
2022/05/13 08:51:37;;;;;;;7.60;3.08;;;;;;;18.47;45.29;100037.41;5010331;28;20045;-65
2022/05/13 08:54:10;;;;;;;9.55;2.67;;;;;;;18.49;45.58;100040.78;5010300;28;20053;-62
2022/05/13 08:56:37;;;;;;;8.60;2.60;;;;;;;18.52;45.13;100045.00;5010509;28;20046;-63
2022/05/13 08:59:17;;;;;;;10.15;2.72;;;;;;;18.49;45.35;100040.78;5010711;28;20049;-63
2022/05/13 09:01:54;;;;;;;10.40;2.90;;;;;;;18.49;45.11;100039.94;5010116;28;20042;-62
2022/05/13 09:04:33;;;;;;;5.28;2.65;;;;;;;18.48;44.98;100044.44;4993027;28;20104;-63
2022/05/13 09:07:03;;;;;;;7.78;2.88;;;;;;;18.52;45.57;100055.69;4994566;28;20050;-62
2022/05/13 09:09:31;;;;;;;8.60;2.45;;;;;;;18.56;45.09;100057.09;5014275;28;20045;-62
2022/05/13 09:12:17;;;;;;;10.55;2.67;;;;;;;18.56;44.83;100053.59;5013811;28;20073;-63
2022/05/13 09:14:56;;;;;;;12.75;2.85;;;;;;;18.63;45.04;100046.75;5013822;28;20054;-63
2022/05/13 09:17:34;;;;;;;5.22;2.20;;;;;;;18.72;45.41;100040.63;5013764;28;20057;-63
2022/05/13 09:20:07;;;;;;;13.20;2.78;;;;;;;18.81;45.16;100040.78;5014352;28;20054;-63
2022/05/13 09:22:35;;;;;;;;;;;;;;;18.92;45.03;100047.84;5014247;28;20065;-62
2022/05/13 09:25:04;;;;;;;8.63;2.20;;;;;;;19.10;44.73;100048.91;5013757;28;19917;-63
2022/05/13 09:27:56;;;;;;;6.90;2.22;;;;;;;19.20;44.02;100050.75;5013391;28;20046;-64
2022/05/13 09:30:32;;;;;;;6.85;2.30;;;;;;;19.27;44.07;100051.91;4995936;28;20129;-63
2022/05/13 09:33:22;;;;;;;7.50;2.47;;;;;;;19.29;43.67;100041.97;4996321;28;20049;-65
2022/05/13 09:35:52;;;;;;;5.60;2.33;;;;;;;19.35;43.40;100048.56;5013825;28;20042;-63
2022/05/13 09:38:24;;;;;;;6.38;2.42;;;;;;;19.35;43.09;100052.06;5013742;28;20060;-62
2022/05/13 09:41:01;;;;;;;6.82;2.28;;;;;;;19.31;43.01;100044.47;5013224;28;20042;-62
2022/05/13 09:43:52;;;;;;;8.50;2.40;;;;;;;19.22;42.70;100049.66;5013220;28;20050;-64
2022/05/13 09:46:35;;;;;;;9.40;2.08;;;;;;;19.17;42.87;100048.41;5003762;28;20045;-62
2022/05/13 09:49:05;;;;;;;;;;;;;;;19.13;42.90;100051.31;5013799;28;20514;-62
2022/05/13 09:51:35;;;;;;;6.68;1.75;;;;;;;19.12;42.95;100048.78;5012699;28;19917;-65
2022/05/13 09:54:15;;;;;;;6.43;2.30;;;;;;;19.01;42.98;100047.03;5013094;28;20049;-63
2022/05/13 09:56:47;;;;;;;7.57;2.58;;;;;;;18.94;43.05;100053.88;5012821;28;20064;-63
2022/05/13 09:59:25;;;;;;;7.53;2.72;;;;;;;18.88;43.44;100056.13;5013348;28;20096;-62
2022/05/13 10:01:52;;;;;;;8.98;2.25;;;;;;;18.96;44.25;100057.28;5012849;28;20053;-63
2022/05/13 10:04:22;;;;;;;7.65;2.60;;;;;;;19.04;43.89;100062.78;4995579;28;20080;-63
2022/05/13 10:07:01;;;;;;;5.05;2.03;;;;;;;19.15;43.59;100056.53;4995332;28;20042;-62
2022/05/13 10:15:31;;;;;;;6.10;2.17;;;;;;;19.19;42.52;100049.09;5013016;28;20386;-62
2022/05/13 10:18:30;;;;;;;7.05;2.40;;;;;;;19.06;42.93;100054.69;5012416;28;20054;-63
2022/05/13 10:21:04;;;;;;;6.75;2.42;;;;;;;18.99;42.64;100065.84;5012447;28;20394;-65
2022/05/13 10:23:38;;;;;;;6.18;2.60;;;;;;;18.89;42.97;100068.47;5012377;28;20057;-62
2022/05/13 10:26:14;;;;;;;6.22;2.50;;;;;;;18.74;43.31;100069.81;4995100;28;20480;-64
2022/05/13 10:29:19;;;;;;;7.18;2.60;;;;;;;18.62;43.02;100083.22;5012540;28;20092;-63
2022/05/13 10:31:46;;;;;;;6.03;2.20;;;;;;;18.62;43.54;100079.72;5012260;28;20058;-63
2022/05/13 10:34:38;;;;;;;7.60;2.50;;;;;;;18.58;43.88;100075.63;5012413;28;20060;-63
2022/05/13 10:37:16;;;;;;;5.30;2.20;;;;;;;18.62;43.79;100079.72;5012282;28;20085;-64
2022/05/13 10:39:54;;;;;;;10.50;3.20;;;;;;;18.64;43.93;100082.28;4995075;28;20057;-64
2022/05/13 10:42:41;;;;;;;9.93;2.55;;;;;;;18.66;43.99;100082.97;4994860;28;20050;-64
2022/05/13 10:45:25;;;;;;;7.88;2.70;;;;;;;18.76;45.45;100075.84;5012044;28;20390;-62
2022/05/13 10:48:05;;;;;;;7.03;2.28;;;;;;;18.95;45.14;100082.28;5012130;28;20437;-63
2022/05/13 10:50:34;;;;;;;7.30;2.53;;;;;;;19.14;44.21;100087.69;4994527;28;20050;-63
2022/05/13 10:53:21;;;;;;;7.82;2.22;;;;;;;19.31;44.28;100087.16;5012357;28;20054;-64
2022/05/13 10:55:54;;;;;;;4.97;2.13;;;;;;;19.45;43.07;100089.47;5012168;28;20065;-63
2022/05/13 10:58:38;;;;;;;4.80;1.98;;;;;;;19.46;42.71;100096.50;5012005;28;20116;-62
2022/05/13 11:01:40;;;;;;;4.85;2.17;;;;;;;19.43;42.43;100086.09;5011924;28;20104;-62
2022/05/13 11:04:24;;;;;;;6.95;2.47;;;;;;;19.37;43.08;100097.31;4983326;28;20041;-62
2022/05/13 11:06:57;;;;;;;8.45;2.80;;;;;;;19.33;43.07;100095.91;5011727;28;20050;-64
2022/05/13 11:09:51;;;;;;;14.50;2.90;;;;;;;19.27;42.69;100100.81;5011568;28;20045;-63
2022/05/13 11:12:42;;;;;;;9.30;2.85;;;;;;;19.20;42.83;100115.66;4994263;28;20060;-63
2022/05/13 11:15:21;;;;;;;7.72;2.85;;;;;;;19.14;43.06;100103.69;5011679;28;20104;-62
2022/05/13 11:18:02;;;;;;;6.35;2.63;;;;;;;19.11;42.96;100113.81;5011480;28;20058;-63
2022/05/13 11:20:47;;;;;;;9.35;2.97;;;;;;;19.05;42.89;100112.53;5011500;28;20105;-63
2022/05/13 11:23:33;;;;;;;10.68;3.63;;;;;;;19.00;42.79;100106.72;4994102;28;20100;-62
2022/05/13 11:26:28;;;;;;;5.57;2.65;;;;;;;18.99;42.99;100108.53;5011097;28;20054;-63
2022/05/13 11:29:09;;;;;;;9.23;2.70;;;;;;;18.99;42.84;100102.38;5011120;28;20053;-64
2022/05/13 11:31:36;;;;;;;6.50;2.53;;;;;;;19.03;43.03;100101.13;5011172;28;20050;-62
2022/05/13 11:34:18;;;;;;;9.05;2.90;;;;;;;19.08;43.96;100098.91;5011314;28;20050;-63
2022/05/13 11:37:05;;;;;;;7.63;2.53;;;;;;;19.25;44.02;100099.25;5011413;28;20050;-62
2022/05/13 11:39:57;;;;;;;5.95;2.33;;;;;;;19.46;43.64;100123.19;4993697;28;20045;-62
2022/05/13 11:43:18;;;;;;;7.78;2.70;;;;;;;19.64;43.37;100115.38;5011212;28;20374;-62
2022/05/13 11:46:09;;;;;;;10.60;3.28;;;;;;;19.86;42.89;100121.44;5011376;28;20112;-63
2022/05/13 11:48:42;;;;;;;9.98;3.38;;;;;;;20.11;44.64;100108.53;5011079;28;20069;-64
2022/05/13 11:51:27;;;;;;;7.93;3.20;;;;;;;20.37;43.38;100102.59;4993741;28;20046;-62
2022/05/13 11:54:29;;;;;;;9.32;3.50;;;;;;;20.70;43.38;100103.09;5011257;28;20138;-63
2022/05/13 11:57:26;;;;;;;5.55;2.83;;;;;;;20.98;41.93;100107.69;5010965;28;20082;-64
2022/05/13 11:59:55;;;;;;;5.68;2.33;;;;;;;21.16;41.25;100099.69;4993770;28;20115;-65
2022/05/13 12:02:48;;;;;;;8.77;2.17;;;;;;;21.18;40.70;100103.06;5010687;28;20049;-62
2022/05/13 12:05:26;;;;;;;6.57;2.30;;;;;;;21.20;40.70;100106.44;5010921;28;20077;-65
2022/05/13 12:08:08;;;;;;;9.93;2.60;;;;;;;21.32;42.23;100100.91;5011017;28;20072;-63
2022/05/13 12:10:55;;;;;;;6.55;2.00;;;;;;;21.60;42.32;100096.34;5010979;28;20049;-63
2022/05/13 12:13:46;;;;;;;3.50;1.80;;;;;;;22.05;41.69;100090.28;4993211;28;20095;-63
2022/05/13 12:16:26;;;;;;;6.03;2.20;;;;;;;22.57;41.74;100085.97;5010972;28;20498;-64